Time,TemperatureF,DewpointF,PressureIn,WindDirection,WindDirectionDegrees,WindSpeedMPH,WindSpeedGustMPH,Humidity,HourlyPrecipIn,Conditions,Clouds,dailyrainin,SoftwareType,DateUTC
2013-07-14 00:01:00,76.5,75.9,30.21,ESE,112,0.0,0.0,98,0.00,RA,,0.00,WeatherDisplay:10.37,2013-07-14 04:01:00,
2013-07-14 00:02:00,76.5,75.9,30.21,ESE,112,0.0,0.0,98,0.00,RA,,0.00,WeatherDisplay:10.37,2013-07-14 04:02:00,
2013-07-14 00:07:00,76.5,75.9,30.21,ESE,112,4.6,4.6,98,0.00,RA,,0.00,WeatherDisplay:10.37,2013-07-14 04:07:00,
2013-07-14 00:12:00,76.5,75.9,30.21,ESE,112,2.3,0.0,98,0.00,CLR,,0.00,WeatherDisplay:10.37,2013-07-14 04:12:00,
2013-07-14 00:17:00,76.5,75.9,30.21,ESE,112,2.3,2.3,98,0.00,CLR,,0.00,WeatherDisplay:10.37,2013-07-14 04:17:00,
2013-07-14 00:22:00,76.8,76.2,30.21,ESE,112,4.6,4.6,98,0.00,CLR,,0.00,WeatherDisplay:10.37,2013-07-14 04:22:00,
2013-07-14 00:27:00,76.8,76.2,30.21,ESE,112,0.0,0.0,98,0.00,CLR,,0.00,WeatherDisplay:10.37,2013-07-14 04:27:00,
2013-07-14 00:32:00,76.8,76.2,30.21,ESE,112,0.0,0.0,98,0.00,CLR,,0.00,WeatherDisplay:10.37,2013-07-14 04:32:00,
2013-07-14 00:37:00,77.0,76.4,30.21,SE,135,0.0,0.0,98,0.00,CLR,,0.00,WeatherDisplay:10.37,2013-07-14 04:37:00,
2013-07-14 00:42:00,77.0,76.4,30.21,SE,135,3.5,3.5,98,0.00,CLR,,0.00,WeatherDisplay:10.37,2013-07-14 04:42:00,
2013-07-14 00:47:00,77.0,76.4,30.21,SSE,158,3.5,3.5,98,0.00,CLR,,0.00,WeatherDisplay:10.37,2013-07-14 04:47:00,
2013-07-14 00:52:00,77.0,76.4,30.21,SE,135,2.3,2.3,98,0.00,CLR,,0.00,WeatherDisplay:10.37,2013-07-14 04:52:00,
2013-07-14 00:57:00,77.0,76.4,30.21,NNW,338,0.0,0.0,98,0.00,CLR,,0.00,WeatherDisplay:10.37,2013-07-14 04:57:00,
2013-07-14 01:02:00,77.0,76.4,30.21,NE,45,6.9,6.9,98,0.00,CLR,,0.00,WeatherDisplay:10.37,2013-07-14 05:02:00,
2013-07-14 01:07:00,77.0,76.4,30.21,NE,45,3.5,3.5,98,0.00,CLR,,0.00,WeatherDisplay:10.37,2013-07-14 05:07:00,
2013-07-14 01:12:00,77.4,76.8,30.21,West,270,3.5,3.5,98,0.00,CLR,,0.00,WeatherDisplay:10.37,2013-07-14 05:12:00,
2013-07-14 01:17:00,77.2,76.6,30.21,NNW,338,3.5,3.5,98,0.00,CLR,,0.00,WeatherDisplay:10.37,2013-07-14 05:17:00,
2013-07-14 01:22:00,77.2,76.6,30.22,SE,135,4.7,4.7,98,0.00,CLR,,0.00,WeatherDisplay:10.37,2013-07-14 05:22:00,
2013-07-14 01:27:00,77.4,76.8,30.22,SSE,158,2.3,2.3,98,0.00,CLR,,0.00,WeatherDisplay:10.37,2013-07-14 05:27:00,
2013-07-14 01:32:00,77.4,76.8,30.22,North,360,3.5,3.5,98,0.00,CLR,,0.00,WeatherDisplay:10.37,2013-07-14 05:32:00,
2013-07-14 01:37:00,77.5,76.9,30.22,North,360,4.6,4.6,98,0.00,CLR,,0.00,WeatherDisplay:10.37,2013-07-14 05:37:00,
2013-07-14 01:42:00,77.5,76.9,30.22,ESE,112,4.6,4.6,98,0.00,CLR,,0.00,WeatherDisplay:10.37,2013-07-14 05:42:00,
2013-07-14 01:47:00,77.4,76.8,30.22,SSE,158,0.0,0.0,98,0.00,CLR,,0.00,WeatherDisplay:10.37,2013-07-14 05:47:00,
2013-07-14 01:52:00,77.4,76.8,30.22,ESE,112,2.9,2.9,98,0.00,CLR,,0.00,WeatherDisplay:10.37,2013-07-14 05:52:00,
2013-07-14 01:57:00,77.2,76.6,30.22,ESE,112,2.9,2.9,98,0.00,CLR,,0.00,WeatherDisplay:10.37,2013-07-14 05:57:00,
2013-07-14 02:02:00,77.2,76.6,30.22,SSE,158,4.6,4.6,98,0.00,CLR,,0.00,WeatherDisplay:10.37,2013-07-14 06:02:00,
2013-07-14 02:07:00,77.4,76.8,30.22,SSE,158,3.5,3.5,98,0.00,CLR,,0.00,WeatherDisplay:10.37,2013-07-14 06:07:00,
2013-07-14 02:12:00,77.4,76.8,30.21,SSE,158,0.0,0.0,98,0.00,CLR,,0.00,WeatherDisplay:10.37,2013-07-14 06:12:00,
2013-07-14 02:17:00,77.4,76.8,30.21,South,180,3.5,3.5,98,0.00,CLR,,0.00,WeatherDisplay:10.37,2013-07-14 06:17:00,
2013-07-14 02:22:00,77.4,76.8,30.21,East,90,6.9,6.9,98,0.00,CLR,,0.00,WeatherDisplay:10.37,2013-07-14 06:22:00,
2013-07-14 02:27:00,77.4,76.8,30.21,North,360,3.5,3.5,98,0.00,CLR,,0.00,WeatherDisplay:10.37,2013-07-14 06:27:00,
2013-07-14 02:32:00,77.5,76.9,30.21,ESE,112,0.0,0.0,98,0.00,CLR,,0.00,WeatherDisplay:10.37,2013-07-14 06:32:00,
2013-07-14 02:37:00,77.5,76.9,30.21,WNW,292,0.0,0.0,98,0.00,CLR,,0.00,WeatherDisplay:10.37,2013-07-14 06:37:00,
2013-07-14 02:42:00,77.5,76.9,30.21,WNW,292,0.0,0.0,98,0.00,CLR,,0.00,WeatherDisplay:10.37,2013-07-14 06:42:00,
2013-07-14 02:47:00,77.5,76.9,30.21,SSE,158,0.0,0.0,98,0.00,CLR,,0.00,WeatherDisplay:10.37,2013-07-14 06:47:00,
2013-07-14 02:52:00,77.4,76.8,30.21,SSE,158,5.8,5.8,98,0.00,CLR,,0.00,WeatherDisplay:10.37,2013-07-14 06:52:00,
2013-07-14 02:57:00,77.4,76.8,30.21,South,180,2.9,2.9,98,0.00,CLR,,0.00,WeatherDisplay:10.37,2013-07-14 06:57:00,
2013-07-14 03:02:00,77.2,76.6,30.21,ESE,112,4.7,4.7,98,0.00,CLR,,0.00,WeatherDisplay:10.37,2013-07-14 07:02:00,
2013-07-14 03:07:00,77.4,76.8,30.21,SE,135,4.7,4.7,98,0.00,CLR,,0.00,WeatherDisplay:10.37,2013-07-14 07:07:00,
2013-07-14 03:12:00,77.4,76.8,30.21,South,180,0.0,0.0,98,0.00,CLR,,0.00,WeatherDisplay:10.37,2013-07-14 07:12:00,
2013-07-14 03:17:00,77.4,76.8,30.21,SSW,202,3.5,3.5,98,0.00,CLR,,0.00,WeatherDisplay:10.37,2013-07-14 07:17:00,
2013-07-14 03:22:00,77.2,76.6,30.21,SSW,202,0.0,0.0,98,0.00,CLR,,0.00,WeatherDisplay:10.37,2013-07-14 07:22:00,
2013-07-14 03:27:00,77.2,76.6,30.21,SSW,202,0.0,0.0,98,0.00,CLR,,0.00,WeatherDisplay:10.37,2013-07-14 07:27:00,
2013-07-14 03:33:00,77.2,76.6,30.21,NNW,338,0.0,0.0,98,0.00,CLR,,0.00,WeatherDisplay:10.37,2013-07-14 07:33:00,
2013-07-14 03:38:00,77.2,76.6,30.21,NNW,338,0.0,0.0,98,0.00,CLR,,0.00,WeatherDisplay:10.37,2013-07-14 07:38:00,
2013-07-14 03:43:00,77.2,76.6,30.21,West,270,0.0,0.0,98,0.00,CLR,,0.00,WeatherDisplay:10.37,2013-07-14 07:43:00,
2013-07-14 03:48:00,77.0,76.4,30.21,NNE,22,3.5,3.5,98,0.00,CLR,,0.00,WeatherDisplay:10.37,2013-07-14 07:48:00,
2013-07-14 03:53:00,77.0,76.4,30.21,East,90,3.5,3.5,98,0.00,CLR,,0.00,WeatherDisplay:10.37,2013-07-14 07:53:00,
2013-07-14 03:58:00,77.0,76.4,30.21,East,90,0.0,0.0,98,0.00,CLR,,0.00,WeatherDisplay:10.37,2013-07-14 07:58:00,
2013-07-14 04:03:00,77.0,76.4,30.21,SE,135,4.6,4.6,98,0.00,CLR,,0.00,WeatherDisplay:10.37,2013-07-14 08:03:00,
2013-07-14 04:08:00,77.0,76.4,30.21,SE,135,0.0,0.0,98,0.00,CLR,,0.00,WeatherDisplay:10.37,2013-07-14 08:08:00,
2013-07-14 04:13:00,76.8,76.2,30.22,ESE,112,0.0,0.0,98,0.00,SCT,,0.00,WeatherDisplay:10.37,2013-07-14 08:13:00,
2013-07-14 04:18:00,76.8,76.2,30.22,East,90,2.3,0.0,98,0.00,SCT,,0.00,WeatherDisplay:10.37,2013-07-14 08:18:00,
2013-07-14 04:23:00,76.8,76.2,30.22,East,90,0.0,0.0,98,0.00,SCT,,0.00,WeatherDisplay:10.37,2013-07-14 08:23:00,
2013-07-14 04:28:00,76.8,76.2,30.22,East,90,0.0,0.0,98,0.00,SCT,,0.00,WeatherDisplay:10.37,2013-07-14 08:28:00,
2013-07-14 04:33:00,76.6,76.0,30.22,East,90,0.0,0.0,98,0.00,SCT,,0.00,WeatherDisplay:10.37,2013-07-14 08:33:00,
2013-07-14 04:38:00,76.6,76.0,30.22,East,90,0.0,0.0,98,0.00,SCT,,0.00,WeatherDisplay:10.37,2013-07-14 08:38:00,
2013-07-14 04:43:00,76.6,76.0,30.22,East,90,0.0,0.0,98,0.00,SCT,,0.00,WeatherDisplay:10.37,2013-07-14 08:43:00,
2013-07-14 04:48:00,76.5,75.9,30.22,West,270,3.5,3.5,98,0.00,SCT,,0.00,WeatherDisplay:10.37,2013-07-14 08:48:00,
2013-07-14 04:53:00,76.5,75.9,30.22,West,270,2.9,2.9,98,0.00,SCT,,0.00,WeatherDisplay:10.37,2013-07-14 08:53:00,
2013-07-14 04:58:00,76.5,75.9,30.22,WSW,248,0.0,0.0,98,0.00,SCT,,0.00,WeatherDisplay:10.37,2013-07-14 08:58:00,
2013-07-14 05:03:00,76.3,75.7,30.22,WSW,248,0.0,0.0,98,0.00,SCT,,0.00,WeatherDisplay:10.37,2013-07-14 09:03:00,
2013-07-14 05:08:00,76.3,75.7,30.22,WSW,248,0.0,0.0,98,0.00,SCT,,0.00,WeatherDisplay:10.37,2013-07-14 09:08:00,
2013-07-14 05:13:00,76.3,75.7,30.22,ESE,112,3.5,3.5,98,0.00,SCT,,0.00,WeatherDisplay:10.37,2013-07-14 09:13:00,
2013-07-14 05:18:00,76.3,75.7,30.22,ESE,112,3.5,3.5,98,0.00,SCT,,0.00,WeatherDisplay:10.37,2013-07-14 09:18:00,
2013-07-14 05:23:00,76.3,75.7,30.22,ESE,112,0.0,0.0,98,0.00,CLR,,0.00,WeatherDisplay:10.37,2013-07-14 09:23:00,
2013-07-14 05:28:00,76.3,75.7,30.22,ESE,112,0.0,0.0,98,0.00,CLR,,0.00,WeatherDisplay:10.37,2013-07-14 09:28:00,
2013-07-14 05:33:00,76.3,75.7,30.22,SSE,158,0.0,0.0,98,0.00,CLR,,0.00,WeatherDisplay:10.37,2013-07-14 09:33:00,
2013-07-14 05:38:00,76.5,75.9,30.22,NNW,338,0.0,0.0,98,0.00,CLR,,0.00,WeatherDisplay:10.37,2013-07-14 09:38:00,
2013-07-14 05:43:00,76.5,75.9,30.22,NNW,338,3.5,3.5,98,0.00,CLR,,0.00,WeatherDisplay:10.37,2013-07-14 09:43:00,
2013-07-14 05:48:00,76.5,75.9,30.22,NNW,338,0.0,0.0,98,0.00,CLR,,0.00,WeatherDisplay:10.37,2013-07-14 09:48:00,
2013-07-14 05:53:00,76.3,75.7,30.22,NNW,338,0.0,0.0,98,0.00,CLR,,0.00,WeatherDisplay:10.37,2013-07-14 09:53:00,
2013-07-14 05:58:00,76.3,75.7,30.22,NNW,338,0.0,0.0,98,0.00,CLR,,0.00,WeatherDisplay:10.37,2013-07-14 09:58:00,
2013-07-14 06:03:00,76.3,75.7,30.22,NNW,338,0.0,0.0,98,0.00,CLR,,0.00,WeatherDisplay:10.37,2013-07-14 10:03:00,
2013-07-14 06:08:00,76.1,75.5,30.22,NNW,338,0.0,0.0,98,0.00,CLR,,0.00,WeatherDisplay:10.37,2013-07-14 10:08:00,
2013-07-14 06:13:00,75.9,75.3,30.22,NNW,338,0.0,0.0,98,0.00,CLR,,0.00,WeatherDisplay:10.37,2013-07-14 10:13:00,
2013-07-14 06:18:00,75.9,75.3,30.22,NNW,338,0.0,0.0,98,0.00,CLR,,0.00,WeatherDisplay:10.37,2013-07-14 10:18:00,
2013-07-14 06:23:00,75.9,75.3,30.24,NNW,338,0.0,0.0,98,0.00,BKN,,0.00,WeatherDisplay:10.37,2013-07-14 10:23:00,
2013-07-14 06:28:00,75.9,75.3,30.24,NNW,338,0.0,0.0,98,0.00,BKN,,0.00,WeatherDisplay:10.37,2013-07-14 10:28:00,
2013-07-14 06:33:00,75.9,75.3,30.24,NNW,338,0.0,0.0,98,0.00,BKN,,0.00,WeatherDisplay:10.37,2013-07-14 10:33:00,
2013-07-14 06:38:00,75.9,75.3,30.24,NNW,338,0.0,0.0,98,0.00,BKN,,0.00,WeatherDisplay:10.37,2013-07-14 10:38:00,
2013-07-14 06:43:00,75.9,75.3,30.24,NNW,338,0.0,0.0,98,0.00,BKN,,0.00,WeatherDisplay:10.37,2013-07-14 10:43:00,
2013-07-14 06:48:00,76.1,75.5,30.24,NNW,338,0.0,0.0,98,0.00,BKN,,0.00,WeatherDisplay:10.37,2013-07-14 10:48:00,
2013-07-14 06:53:00,76.3,75.7,30.24,NNW,338,0.0,0.0,98,0.00,BKN,,0.00,WeatherDisplay:10.37,2013-07-14 10:53:00,
2013-07-14 06:58:00,76.8,76.2,30.24,NNW,338,0.0,0.0,98,0.00,BKN,,0.00,WeatherDisplay:10.37,2013-07-14 10:58:00,
2013-07-14 07:03:00,77.2,76.6,30.24,NNE,22,2.3,0.0,98,0.00,SCT,,0.00,WeatherDisplay:10.37,2013-07-14 11:03:00,
2013-07-14 07:08:00,77.4,76.8,30.24,NE,45,2.9,2.9,98,0.00,SCT,,0.00,WeatherDisplay:10.37,2013-07-14 11:08:00,
2013-07-14 07:13:00,77.7,77.1,30.25,North,360,3.5,3.5,98,0.00,CLR,,0.00,WeatherDisplay:10.37,2013-07-14 11:13:00,
2013-07-14 07:18:00,77.9,77.3,30.25,North,360,0.0,0.0,98,0.00,CLR,,0.00,WeatherDisplay:10.37,2013-07-14 11:18:00,
2013-07-14 07:23:00,78.1,77.5,30.25,North,360,0.0,0.0,98,0.00,CLR,,0.00,WeatherDisplay:10.37,2013-07-14 11:23:00,
2013-07-14 07:28:00,77.5,76.9,30.25,ESE,112,13.8,13.8,98,0.00,CLR,,0.03,WeatherDisplay:10.37,2013-07-14 11:28:00,
2013-07-14 07:33:00,76.8,76.2,30.25,South,180,3.5,3.5,98,0.03,RA,,0.03,WeatherDisplay:10.37,2013-07-14 11:33:00,
2013-07-14 07:38:00,77.7,77.1,30.25,North,360,0.0,0.0,98,0.03,RA,,0.03,WeatherDisplay:10.37,2013-07-14 11:38:00,
2013-07-14 07:43:00,79.2,78.6,30.25,East,90,2.3,0.0,98,0.03,CLR,,0.03,WeatherDisplay:10.37,2013-07-14 11:43:00,
2013-07-14 07:48:00,80.1,79.5,30.25,East,90,0.0,0.0,98,0.03,CLR,,0.03,WeatherDisplay:10.37,2013-07-14 11:48:00,
2013-07-14 07:53:00,81.1,80.5,30.25,East,90,0.0,0.0,98,0.03,CLR,,0.03,WeatherDisplay:10.37,2013-07-14 11:53:00,
2013-07-14 07:58:00,82.8,82.2,30.25,East,90,0.0,0.0,98,0.03,CLR,,0.03,WeatherDisplay:10.37,2013-07-14 11:58:00,
2013-07-14 08:03:00,84.0,83.4,30.25,East,90,0.0,0.0,98,0.03,CLR,,0.03,WeatherDisplay:10.37,2013-07-14 12:03:00,
2013-07-14 08:08:00,86.0,85.4,30.25,ENE,68,3.8,3.8,98,0.03,CLR,,0.03,WeatherDisplay:10.37,2013-07-14 12:08:00,
2013-07-14 08:14:00,85.4,82.5,30.26,SSE,158,3.8,3.8,91,0.03,FEW,,0.03,WeatherDisplay:10.37,2013-07-14 12:14:00,
2013-07-14 08:19:00,85.4,81.1,30.26,East,90,4.6,4.6,87,0.03,FEW,,0.03,WeatherDisplay:10.37,2013-07-14 12:19:00,
2013-07-14 08:24:00,85.4,80.0,30.26,ENE,68,3.8,3.8,84,0.03,FEW,,0.03,WeatherDisplay:10.37,2013-07-14 12:24:00,
2013-07-14 08:29:00,85.4,80.8,30.26,SW,225,3.5,3.5,86,0.03,FEW,,0.03,WeatherDisplay:10.37,2013-07-14 12:29:00,
2013-07-14 08:34:00,84.2,83.3,30.26,East,90,6.9,6.9,97,0.00,FEW,,0.03,WeatherDisplay:10.37,2013-07-14 12:34:00,
2013-07-14 08:39:00,83.1,82.5,30.26,NE,45,4.7,4.7,98,0.00,FEW,,0.03,WeatherDisplay:10.37,2013-07-14 12:39:00,
2013-07-14 08:44:00,82.4,81.8,30.26,WNW,292,4.6,4.6,98,0.00,FEW,,0.03,WeatherDisplay:10.37,2013-07-14 12:44:00,
2013-07-14 08:49:00,83.1,82.5,30.26,West,270,3.5,0.0,98,0.00,FEW,,0.03,WeatherDisplay:10.37,2013-07-14 12:49:00,
2013-07-14 08:54:00,84.4,83.8,30.26,ESE,112,8.1,8.1,98,0.00,FEW,,0.03,WeatherDisplay:10.37,2013-07-14 12:54:00,
2013-07-14 08:59:00,85.1,84.2,30.26,SSW,202,8.1,8.1,97,0.00,FEW,,0.03,WeatherDisplay:10.37,2013-07-14 12:59:00,
2013-07-14 09:04:00,84.4,83.8,30.26,ESE,112,4.6,4.6,98,0.00,FEW,,0.03,WeatherDisplay:10.37,2013-07-14 13:04:00,
2013-07-14 09:09:00,85.1,82.2,30.26,NNE,22,8.3,8.3,91,0.00,FEW,,0.03,WeatherDisplay:10.37,2013-07-14 13:09:00,
2013-07-14 09:14:00,85.1,82.2,30.27,South,180,7.4,7.4,91,0.00,FEW,,0.03,WeatherDisplay:10.37,2013-07-14 13:14:00,
2013-07-14 09:19:00,85.5,81.9,30.27,East,90,5.8,5.8,89,0.00,FEW,,0.03,WeatherDisplay:10.37,2013-07-14 13:19:00,
2013-07-14 09:24:00,84.6,81.7,30.27,NNW,338,3.5,3.5,91,0.00,FEW,,0.03,WeatherDisplay:10.37,2013-07-14 13:24:00,
2013-07-14 09:29:00,85.5,81.9,30.27,NNE,22,8.1,8.1,89,0.00,FEW,,0.03,WeatherDisplay:10.37,2013-07-14 13:29:00,
2013-07-14 09:34:00,85.3,81.7,30.27,ESE,112,5.8,5.8,89,0.00,FEW,,0.03,WeatherDisplay:10.37,2013-07-14 13:34:00,
2013-07-14 09:39:00,85.5,80.1,30.27,SSE,158,6.9,6.9,84,0.00,FEW,,0.03,WeatherDisplay:10.37,2013-07-14 13:39:00,
2013-07-14 09:44:00,85.5,80.1,30.27,East,90,4.7,4.7,84,0.00,FEW,,0.03,WeatherDisplay:10.37,2013-07-14 13:44:00,
2013-07-14 09:49:00,85.4,77.4,30.27,East,90,10.4,10.4,77,0.00,FEW,,0.03,WeatherDisplay:10.37,2013-07-14 13:49:00,
2013-07-14 09:54:00,84.7,81.1,30.27,SW,225,3.8,3.8,89,0.00,FEW,,0.03,WeatherDisplay:10.37,2013-07-14 13:54:00,
2013-07-14 09:59:00,85.3,80.6,30.27,SSE,158,6.9,6.9,86,0.00,FEW,,0.03,WeatherDisplay:10.37,2013-07-14 13:59:00,
2013-07-14 10:04:00,84.6,79.9,30.28,SSW,202,12.8,12.8,86,0.00,BKN,,0.03,WeatherDisplay:10.37,2013-07-14 14:04:00,
2013-07-14 10:09:00,84.2,79.6,30.28,WNW,292,5.8,5.8,86,0.00,BKN,,0.03,WeatherDisplay:10.37,2013-07-14 14:09:00,
2013-07-14 10:14:00,84.0,79.0,30.28,West,270,5.8,5.8,85,0.00,BKN,,0.03,WeatherDisplay:10.37,2013-07-14 14:14:00,
2013-07-14 10:19:00,84.9,78.8,30.28,South,180,6.9,6.9,82,0.00,BKN,,0.03,WeatherDisplay:10.37,2013-07-14 14:19:00,
2013-07-14 10:24:00,86.0,79.1,30.28,West,270,6.9,6.9,80,0.00,BKN,,0.03,WeatherDisplay:10.37,2013-07-14 14:24:00,
2013-07-14 10:29:00,85.6,78.7,30.28,SSW,202,6.9,6.9,80,0.00,BKN,,0.03,WeatherDisplay:10.37,2013-07-14 14:29:00,
2013-07-14 10:34:00,85.8,78.9,30.28,ESE,112,5.6,5.6,80,0.00,BKN,,0.03,WeatherDisplay:10.37,2013-07-14 14:34:00,
2013-07-14 10:39:00,85.8,79.2,30.28,NE,45,4.6,4.6,81,0.00,BKN,,0.03,WeatherDisplay:10.37,2013-07-14 14:39:00,
2013-07-14 10:44:00,85.8,79.2,30.28,South,180,6.9,6.9,81,0.00,BKN,,0.03,WeatherDisplay:10.37,2013-07-14 14:44:00,
2013-07-14 10:49:00,85.8,78.9,30.28,SE,135,6.9,6.9,80,0.00,BKN,,0.03,WeatherDisplay:10.37,2013-07-14 14:49:00,
2013-07-14 10:54:00,85.8,78.5,30.28,West,270,6.9,6.9,79,0.00,BKN,,0.03,WeatherDisplay:10.37,2013-07-14 14:54:00,
2013-07-14 10:59:00,85.8,78.1,30.28,NNE,22,8.1,8.1,78,0.00,BKN,,0.03,WeatherDisplay:10.37,2013-07-14 14:59:00,
2013-07-14 11:04:00,85.8,78.9,30.28,West,270,6.9,6.9,80,0.00,BKN,,0.03,WeatherDisplay:10.37,2013-07-14 15:04:00,
2013-07-14 11:09:00,85.8,78.9,30.28,SW,225,5.8,5.8,80,0.00,BKN,,0.03,WeatherDisplay:10.37,2013-07-14 15:09:00,
2013-07-14 11:14:00,85.8,77.7,30.28,North,360,8.1,8.1,77,0.00,BKN,,0.03,WeatherDisplay:10.37,2013-07-14 15:14:00,
2013-07-14 11:19:00,85.8,78.1,30.28,ESE,112,10.1,10.1,78,0.00,BKN,,0.03,WeatherDisplay:10.37,2013-07-14 15:19:00,
2013-07-14 11:24:00,85.8,77.3,30.29,West,270,3.5,3.5,76,0.00,BKN,,0.03,WeatherDisplay:10.37,2013-07-14 15:24:00,
2013-07-14 11:29:00,85.8,76.9,30.29,WSW,248,8.1,8.1,75,0.00,BKN,,0.03,WeatherDisplay:10.37,2013-07-14 15:29:00,
2013-07-14 11:34:00,85.8,77.7,30.29,South,180,3.8,3.9,77,0.00,BKN,,0.03,WeatherDisplay:10.37,2013-07-14 15:34:00,
2013-07-14 11:39:00,85.8,78.1,30.29,East,90,9.2,9.2,78,0.00,BKN,,0.03,WeatherDisplay:10.37,2013-07-14 15:39:00,
2013-07-14 11:44:00,85.8,78.1,30.29,SSW,202,6.9,6.9,78,0.00,BKN,,0.03,WeatherDisplay:10.37,2013-07-14 15:44:00,
2013-07-14 11:49:00,85.8,76.1,30.29,SW,225,9.2,9.2,73,0.00,BKN,,0.03,WeatherDisplay:10.37,2013-07-14 15:49:00,
2013-07-14 11:54:00,85.8,73.1,30.29,ESE,112,3.8,3.8,66,0.00,BKN,,0.03,WeatherDisplay:10.37,2013-07-14 15:54:00,
2013-07-14 11:59:00,85.8,72.6,30.29,South,180,8.1,8.1,65,0.00,BKN,,0.03,WeatherDisplay:10.37,2013-07-14 15:59:00,
2013-07-14 12:04:00,85.8,73.5,30.29,NE,45,9.2,9.2,67,0.00,BKN,,0.03,WeatherDisplay:10.37,2013-07-14 16:04:00,
2013-07-14 12:09:00,85.8,74.0,30.29,NE,45,4.7,4.7,68,0.00,BKN,,0.03,WeatherDisplay:10.37,2013-07-14 16:09:00,
2013-07-14 12:14:00,85.8,74.0,30.29,SE,135,11.5,11.5,68,0.00,BKN,,0.03,WeatherDisplay:10.37,2013-07-14 16:14:00,
2013-07-14 12:19:00,85.8,74.0,30.29,East,90,4.7,4.7,68,0.00,BKN,,0.03,WeatherDisplay:10.37,2013-07-14 16:19:00,
2013-07-14 12:24:00,85.8,78.1,30.29,NNE,22,4.7,4.7,78,0.00,BKN,,0.03,WeatherDisplay:10.37,2013-07-14 16:24:00,
2013-07-14 12:29:00,84.9,79.9,30.29,SE,135,4.6,4.6,85,0.00,BKN,,0.03,WeatherDisplay:10.37,2013-07-14 16:29:00,
2013-07-14 12:34:00,85.1,79.7,30.29,SE,135,3.5,3.5,84,0.00,BKN,,0.03,WeatherDisplay:10.37,2013-07-14 16:34:00,
2013-07-14 12:39:00,84.7,79.0,30.29,SSE,158,5.8,5.8,83,0.00,BKN,,0.03,WeatherDisplay:10.37,2013-07-14 16:39:00,
2013-07-14 12:44:00,84.6,78.9,30.29,SSE,158,6.9,6.9,83,0.00,BKN,,0.03,WeatherDisplay:10.37,2013-07-14 16:44:00,
2013-07-14 12:49:00,84.6,79.9,30.29,SSE,158,0.0,0.0,86,0.00,BKN,,0.03,WeatherDisplay:10.37,2013-07-14 16:49:00,
2013-07-14 12:54:00,84.6,79.9,30.29,SSW,202,5.8,5.8,86,0.00,BKN,,0.03,WeatherDisplay:10.37,2013-07-14 16:54:00,
2013-07-14 12:59:00,84.0,79.4,30.29,South,180,6.9,6.9,86,0.00,BKN,,0.03,WeatherDisplay:10.37,2013-07-14 16:59:00,
2013-07-14 13:04:00,83.7,79.1,30.29,South,180,4.6,4.6,86,0.00,BKN,,0.03,WeatherDisplay:10.37,2013-07-14 17:04:00,
2013-07-14 13:09:00,83.3,79.0,30.29,South,180,3.5,3.5,87,0.00,BKN,,0.03,WeatherDisplay:10.37,2013-07-14 17:09:00,
2013-07-14 13:14:00,83.1,79.2,30.29,South,180,4.6,0.0,88,0.00,CLR,,0.03,WeatherDisplay:10.37,2013-07-14 17:14:00,
2013-07-14 13:20:00,83.5,79.6,30.29,NNW,338,0.0,0.0,88,0.00,CLR,,0.03,WeatherDisplay:10.37,2013-07-14 17:20:00,
2013-07-14 13:25:00,83.8,79.9,30.29,SW,225,0.0,0.0,88,0.00,CLR,,0.03,WeatherDisplay:10.37,2013-07-14 17:25:00,
2013-07-14 13:30:00,83.8,77.7,30.29,West,270,0.0,0.0,82,0.00,CLR,,0.03,WeatherDisplay:10.37,2013-07-14 17:30:00,
2013-07-14 13:35:00,83.3,79.4,30.29,South,180,3.8,3.8,88,0.00,CLR,,0.03,WeatherDisplay:10.37,2013-07-14 17:35:00,
2013-07-14 13:40:00,82.9,79.7,30.29,South,180,3.5,3.5,90,0.00,CLR,,0.03,WeatherDisplay:10.37,2013-07-14 17:40:00,
2013-07-14 13:45:00,83.1,77.8,30.29,SSW,202,3.8,3.8,84,0.00,CLR,,0.03,WeatherDisplay:10.37,2013-07-14 17:45:00,
2013-07-14 13:50:00,83.3,79.4,30.29,NNW,338,3.5,0.0,88,0.00,CLR,,0.03,WeatherDisplay:10.37,2013-07-14 17:50:00,
2013-07-14 13:55:00,83.5,76.7,30.29,West,270,3.5,3.5,80,0.00,CLR,,0.03,WeatherDisplay:10.37,2013-07-14 17:55:00,
2013-07-14 14:00:00,82.8,78.9,30.29,South,180,4.6,4.6,88,0.00,CLR,,0.03,WeatherDisplay:10.37,2013-07-14 18:00:00,
2013-07-14 14:05:00,83.1,78.1,30.29,SSW,202,3.5,3.5,85,0.00,CLR,,0.03,WeatherDisplay:10.37,2013-07-14 18:05:00,
2013-07-14 14:10:00,83.1,77.4,30.29,West,270,2.3,2.3,83,0.00,CLR,,0.03,WeatherDisplay:10.37,2013-07-14 18:10:00,
2013-07-14 14:15:00,83.8,75.8,30.29,West,270,0.0,0.0,77,0.00,CLR,,0.03,WeatherDisplay:10.37,2013-07-14 18:15:00,
2013-07-14 14:20:00,83.7,77.6,30.29,West,270,3.8,3.8,82,0.00,CLR,,0.03,WeatherDisplay:10.37,2013-07-14 18:20:00,
2013-07-14 14:25:00,83.1,78.8,30.29,South,180,5.8,5.8,87,0.00,CLR,,0.03,WeatherDisplay:10.37,2013-07-14 18:25:00,
2013-07-14 14:30:00,82.9,78.6,30.29,SW,225,3.5,3.5,87,0.00,CLR,,0.03,WeatherDisplay:10.37,2013-07-14 18:30:00,
2013-07-14 14:35:00,83.7,77.2,30.29,WNW,292,4.7,4.7,81,0.00,CLR,,0.03,WeatherDisplay:10.37,2013-07-14 18:35:00,
2013-07-14 14:40:00,83.7,77.2,30.29,WSW,248,0.0,0.0,81,0.00,CLR,,0.03,WeatherDisplay:10.37,2013-07-14 18:40:00,
2013-07-14 14:45:00,83.7,77.6,30.29,South,180,3.8,3.8,82,0.00,CLR,,0.03,WeatherDisplay:10.37,2013-07-14 18:45:00,
2013-07-14 14:50:00,83.5,77.8,30.29,NW,315,5.8,5.8,83,0.00,CLR,,0.03,WeatherDisplay:10.37,2013-07-14 18:50:00,
2013-07-14 14:55:00,83.8,78.1,30.29,West,270,3.5,3.5,83,0.00,CLR,,0.03,WeatherDisplay:10.37,2013-07-14 18:55:00,
2013-07-14 15:00:00,84.0,77.9,30.29,West,270,3.5,3.5,82,0.00,CLR,,0.03,WeatherDisplay:10.37,2013-07-14 19:00:00,
2013-07-14 15:05:00,83.3,78.7,30.29,SSW,202,3.5,3.6,86,0.00,CLR,,0.03,WeatherDisplay:10.37,2013-07-14 19:05:00,
2013-07-14 15:10:00,83.5,78.2,30.29,NW,315,3.5,3.5,84,0.00,CLR,,0.03,WeatherDisplay:10.37,2013-07-14 19:10:00,
2013-07-14 15:15:00,83.5,79.2,30.29,SW,225,3.5,3.5,87,0.00,CLR,,0.03,WeatherDisplay:10.37,2013-07-14 19:15:00,
2013-07-14 15:20:00,83.7,79.1,30.29,West,270,0.0,0.0,86,0.00,CLR,,0.03,WeatherDisplay:10.37,2013-07-14 19:20:00,
2013-07-14 15:25:00,83.3,79.0,30.27,South,180,5.8,5.8,87,0.00,CLR,,0.03,WeatherDisplay:10.37,2013-07-14 19:25:00,
2013-07-14 15:30:00,83.7,78.3,30.27,South,180,5.8,5.8,84,0.00,CLR,,0.03,WeatherDisplay:10.37,2013-07-14 19:30:00,
2013-07-14 15:35:00,83.5,79.6,30.27,South,180,4.6,4.6,88,0.00,CLR,,0.03,WeatherDisplay:10.37,2013-07-14 19:35:00,
2013-07-14 15:40:00,83.7,79.8,30.27,South,180,6.9,6.9,88,0.00,CLR,,0.03,WeatherDisplay:10.37,2013-07-14 19:40:00,
2013-07-14 15:45:00,83.3,78.7,30.27,SW,225,4.7,4.7,86,0.00,CLR,,0.03,WeatherDisplay:10.37,2013-07-14 19:45:00,
2013-07-14 15:50:00,83.5,79.9,30.27,SW,225,4.7,4.7,89,0.00,CLR,,0.03,WeatherDisplay:10.37,2013-07-14 19:50:00,
2013-07-14 15:55:00,83.5,79.9,30.27,SW,225,4.6,4.6,89,0.00,CLR,,0.03,WeatherDisplay:10.37,2013-07-14 19:55:00,
2013-07-14 16:00:00,83.1,79.5,30.27,South,180,5.8,5.8,89,0.00,CLR,,0.03,WeatherDisplay:10.37,2013-07-14 20:00:00,
2013-07-14 16:05:00,83.3,79.0,30.27,SW,225,4.7,4.7,87,0.00,CLR,,0.03,WeatherDisplay:10.37,2013-07-14 20:05:00,
2013-07-14 16:10:00,83.3,79.7,30.27,South,180,3.5,3.5,89,0.00,CLR,,0.03,WeatherDisplay:10.37,2013-07-14 20:10:00,
2013-07-14 16:15:00,83.1,78.5,30.27,NW,315,4.6,4.6,86,0.00,CLR,,0.03,WeatherDisplay:10.37,2013-07-14 20:15:00,
2013-07-14 16:20:00,82.8,78.9,30.27,WSW,248,4.6,4.6,88,0.00,CLR,,0.03,WeatherDisplay:10.37,2013-07-14 20:20:00,
2013-07-14 16:25:00,82.4,78.5,30.26,SW,225,0.0,0.0,88,0.00,FEW,,0.03,WeatherDisplay:10.37,2013-07-14 20:25:00,
2013-07-14 16:30:00,82.4,78.5,30.26,SW,225,0.0,0.0,88,0.00,FEW,,0.03,WeatherDisplay:10.37,2013-07-14 20:30:00,
2013-07-14 16:35:00,82.2,78.6,30.26,West,270,3.5,3.5,89,0.00,FEW,,0.03,WeatherDisplay:10.37,2013-07-14 20:35:00,
2013-07-14 16:40:00,82.8,78.2,30.26,NW,315,3.8,3.8,86,0.00,FEW,,0.03,WeatherDisplay:10.37,2013-07-14 20:40:00,
2013-07-14 16:45:00,82.4,78.5,30.26,South,180,0.0,0.0,88,0.00,FEW,,0.03,WeatherDisplay:10.37,2013-07-14 20:45:00,
2013-07-14 16:50:00,82.2,78.6,30.26,West,270,3.5,3.5,89,0.00,FEW,,0.03,WeatherDisplay:10.37,2013-07-14 20:50:00,
2013-07-14 16:55:00,82.0,78.8,30.26,West,270,0.0,0.0,90,0.00,FEW,,0.03,WeatherDisplay:10.37,2013-07-14 20:55:00,
2013-07-14 17:00:00,82.0,78.1,30.26,West,270,2.9,2.9,88,0.00,FEW,,0.03,WeatherDisplay:10.37,2013-07-14 21:00:00,
2013-07-14 17:05:00,82.0,78.8,30.26,West,270,2.3,0.0,90,0.00,FEW,,0.03,WeatherDisplay:10.37,2013-07-14 21:05:00,
2013-07-14 17:10:00,81.9,79.3,30.26,West,270,0.0,0.0,92,0.00,FEW,,0.03,WeatherDisplay:10.37,2013-07-14 21:10:00,
2013-07-14 17:15:00,82.0,78.8,30.25,West,270,0.0,0.0,90,0.00,SCT,,0.03,WeatherDisplay:10.37,2013-07-14 21:15:00,
2013-07-14 17:20:00,81.5,78.6,30.25,NW,315,3.5,3.5,91,0.00,SCT,,0.03,WeatherDisplay:10.37,2013-07-14 21:20:00,
2013-07-14 17:25:00,82.0,78.1,30.25,NNW,338,2.0,2.3,88,0.00,SCT,,0.03,WeatherDisplay:10.37,2013-07-14 21:25:00,
2013-07-14 17:30:00,81.9,78.3,30.25,SW,225,3.5,3.5,89,0.00,SCT,,0.03,WeatherDisplay:10.37,2013-07-14 21:30:00,
2013-07-14 17:35:00,82.0,78.8,30.25,SSW,202,0.0,0.0,90,0.00,SCT,,0.03,WeatherDisplay:10.37,2013-07-14 21:35:00,
2013-07-14 17:40:00,82.2,77.9,30.25,WNW,292,2.0,2.0,87,0.00,SCT,,0.03,WeatherDisplay:10.37,2013-07-14 21:40:00,
2013-07-14 17:45:00,82.2,78.3,30.25,West,270,3.8,3.8,88,0.00,SCT,,0.03,WeatherDisplay:10.37,2013-07-14 21:45:00,
2013-07-14 17:50:00,82.2,77.9,30.25,West,270,3.5,0.0,87,0.00,SCT,,0.03,WeatherDisplay:10.37,2013-07-14 21:50:00,
2013-07-14 17:55:00,82.4,78.1,30.25,NW,315,3.5,0.0,87,0.00,SCT,,0.03,WeatherDisplay:10.37,2013-07-14 21:55:00,
2013-07-14 18:00:00,82.2,79.0,30.25,West,270,2.3,0.0,90,0.00,SCT,,0.03,WeatherDisplay:10.37,2013-07-14 22:00:00,
2013-07-14 18:05:00,81.7,79.5,30.25,West,270,3.5,0.0,93,0.00,SCT,,0.03,WeatherDisplay:10.37,2013-07-14 22:05:00,
2013-07-14 18:11:00,82.2,78.3,30.25,WNW,292,3.5,3.5,88,0.00,SCT,,0.03,WeatherDisplay:10.37,2013-07-14 22:11:00,
2013-07-14 18:16:00,82.2,78.6,30.25,WSW,248,3.5,0.0,89,0.00,SCT,,0.03,WeatherDisplay:10.37,2013-07-14 22:16:00,
2013-07-14 18:21:00,82.4,79.2,30.25,SW,225,3.5,3.5,90,0.00,SCT,,0.03,WeatherDisplay:10.37,2013-07-14 22:21:00,
2013-07-14 18:26:00,82.2,79.3,30.25,South,180,2.0,2.0,91,0.00,SCT,,0.03,WeatherDisplay:10.37,2013-07-14 22:26:00,
2013-07-14 18:31:00,82.2,79.0,30.25,South,180,0.0,0.0,90,0.00,SCT,,0.03,WeatherDisplay:10.37,2013-07-14 22:31:00,
2013-07-14 18:36:00,81.9,79.7,30.25,SSE,158,3.5,3.5,93,0.00,BKN,,0.03,WeatherDisplay:10.37,2013-07-14 22:36:00,
2013-07-14 18:41:00,81.7,80.8,30.25,SSE,158,2.3,2.3,97,0.00,BKN,,0.03,WeatherDisplay:10.37,2013-07-14 22:41:00,
2013-07-14 18:46:00,81.5,78.9,30.25,SSE,158,3.5,0.0,92,0.00,BKN,,0.03,WeatherDisplay:10.37,2013-07-14 22:46:00,
2013-07-14 18:51:00,81.3,80.7,30.25,SSE,158,3.5,3.5,98,0.00,BKN,,0.03,WeatherDisplay:10.37,2013-07-14 22:51:00,
2013-07-14 18:56:00,81.1,77.9,30.25,SW,225,3.5,3.5,90,0.00,BKN,,0.03,WeatherDisplay:10.37,2013-07-14 22:56:00,
2013-07-14 19:01:00,81.1,77.9,30.25,SW,225,0.0,0.0,90,0.00,BKN,,0.03,WeatherDisplay:10.37,2013-07-14 23:01:00,
2013-07-14 19:06:00,81.0,78.1,30.25,West,270,0.0,0.0,91,0.00,BKN,,0.03,WeatherDisplay:10.37,2013-07-14 23:06:00,
2013-07-14 19:11:00,80.6,79.0,30.25,West,270,0.0,0.0,95,0.00,BKN,,0.03,WeatherDisplay:10.37,2013-07-14 23:11:00,
2013-07-14 19:16:00,80.6,79.4,30.25,West,270,0.0,0.0,96,0.00,SCT,,0.03,WeatherDisplay:10.37,2013-07-14 23:16:00,
2013-07-14 19:21:00,80.8,79.9,30.25,WSW,248,0.0,0.0,97,0.00,SCT,,0.03,WeatherDisplay:10.37,2013-07-14 23:21:00,
2013-07-14 19:26:00,80.4,79.8,30.25,WSW,248,0.0,0.0,98,0.00,SCT,,0.03,WeatherDisplay:10.37,2013-07-14 23:26:00,
2013-07-14 19:31:00,80.4,79.8,30.25,WSW,248,0.0,0.0,98,0.00,SCT,,0.03,WeatherDisplay:10.37,2013-07-14 23:31:00,
2013-07-14 19:36:00,80.6,80.0,30.25,SSW,202,0.0,0.0,98,0.00,SCT,,0.03,WeatherDisplay:10.37,2013-07-14 23:36:00,
2013-07-14 19:41:00,80.6,80.0,30.25,SSW,202,0.0,0.0,98,0.00,SCT,,0.03,WeatherDisplay:10.37,2013-07-14 23:41:00,
2013-07-14 19:46:00,80.6,80.0,30.25,SSW,202,0.0,0.0,98,0.00,SCT,,0.03,WeatherDisplay:10.37,2013-07-14 23:46:00,
2013-07-14 19:51:00,80.6,80.0,30.25,SSW,202,0.0,0.0,98,0.00,SCT,,0.03,WeatherDisplay:10.37,2013-07-14 23:51:00,
2013-07-14 19:56:00,80.6,80.0,30.25,SSW,202,0.0,0.0,98,0.00,SCT,,0.03,WeatherDisplay:10.37,2013-07-14 23:56:00,
2013-07-14 20:01:00,80.4,79.8,30.25,SSW,202,0.0,0.0,98,0.00,SCT,,0.03,WeatherDisplay:10.37,2013-07-15 00:01:00,
2013-07-14 20:06:00,80.2,79.6,30.25,SSW,202,0.0,0.0,98,0.00,SCT,,0.03,WeatherDisplay:10.37,2013-07-15 00:06:00,
2013-07-14 20:11:00,80.2,79.6,30.25,SSW,202,0.0,0.0,98,0.00,SCT,,0.03,WeatherDisplay:10.37,2013-07-15 00:11:00,
2013-07-14 20:16:00,80.1,79.5,30.25,SSW,202,0.0,0.0,98,0.00,SCT,,0.03,WeatherDisplay:10.37,2013-07-15 00:16:00,
2013-07-14 20:21:00,79.9,79.3,30.26,SSW,202,0.0,0.0,98,0.00,CLR,,0.03,WeatherDisplay:10.37,2013-07-15 00:21:00,
2013-07-14 20:26:00,79.5,78.9,30.26,SSW,202,0.0,0.0,98,0.00,CLR,,0.03,WeatherDisplay:10.37,2013-07-15 00:26:00,
2013-07-14 20:31:00,79.7,79.1,30.26,SSW,202,0.0,0.0,98,0.00,CLR,,0.03,WeatherDisplay:10.37,2013-07-15 00:31:00,
2013-07-14 20:36:00,79.5,78.9,30.26,WSW,248,0.0,0.0,98,0.00,CLR,,0.03,WeatherDisplay:10.37,2013-07-15 00:36:00,
2013-07-14 20:41:00,79.5,78.9,30.26,WSW,248,0.0,0.0,98,0.00,CLR,,0.03,WeatherDisplay:10.37,2013-07-15 00:41:00,
2013-07-14 20:46:00,79.3,78.7,30.26,WSW,248,0.0,0.0,98,0.00,CLR,,0.03,WeatherDisplay:10.37,2013-07-15 00:46:00,
2013-07-14 20:51:00,79.2,78.6,30.26,WSW,248,0.0,0.0,98,0.00,CLR,,0.03,WeatherDisplay:10.37,2013-07-15 00:51:00,
2013-07-14 20:56:00,79.2,78.6,30.26,WSW,248,0.0,0.0,98,0.00,CLR,,0.03,WeatherDisplay:10.37,2013-07-15 00:56:00,
2013-07-14 21:01:00,79.2,78.6,30.26,WSW,248,0.0,0.0,98,0.00,CLR,,0.03,WeatherDisplay:10.37,2013-07-15 01:01:00,
2013-07-14 21:06:00,79.0,78.4,30.26,WSW,248,0.0,0.0,98,0.00,CLR,,0.03,WeatherDisplay:10.37,2013-07-15 01:06:00,
2013-07-14 21:11:00,79.0,78.4,30.26,WSW,248,0.0,0.0,98,0.00,CLR,,0.03,WeatherDisplay:10.37,2013-07-15 01:11:00,
2013-07-14 21:16:00,79.0,78.4,30.26,WSW,248,0.0,0.0,98,0.00,CLR,,0.03,WeatherDisplay:10.37,2013-07-15 01:16:00,
2013-07-14 21:21:00,78.8,78.2,30.26,WSW,248,0.0,0.0,98,0.00,CLR,,0.03,WeatherDisplay:10.37,2013-07-15 01:21:00,
2013-07-14 21:26:00,78.8,78.2,30.26,WSW,248,0.0,0.0,98,0.00,CLR,,0.03,WeatherDisplay:10.37,2013-07-15 01:26:00,
2013-07-14 21:31:00,78.8,78.2,30.26,WSW,248,0.0,0.0,98,0.00,CLR,,0.03,WeatherDisplay:10.37,2013-07-15 01:31:00,
2013-07-14 21:36:00,78.8,78.2,30.26,WSW,248,0.0,0.0,98,0.00,CLR,,0.03,WeatherDisplay:10.37,2013-07-15 01:36:00,
2013-07-14 21:41:00,78.8,78.2,30.26,WSW,248,0.0,0.0,98,0.00,CLR,,0.03,WeatherDisplay:10.37,2013-07-15 01:41:00,
2013-07-14 21:46:00,78.6,78.0,30.26,WSW,248,0.0,0.0,98,0.00,CLR,,0.03,WeatherDisplay:10.37,2013-07-15 01:46:00,
2013-07-14 21:51:00,78.6,78.0,30.26,WSW,248,0.0,0.0,98,0.00,CLR,,0.03,WeatherDisplay:10.37,2013-07-15 01:51:00,
2013-07-14 21:56:00,78.6,78.0,30.26,WSW,248,0.0,0.0,98,0.00,CLR,,0.03,WeatherDisplay:10.37,2013-07-15 01:56:00,
2013-07-14 22:01:00,78.6,78.0,30.26,WSW,248,0.0,0.0,98,0.00,CLR,,0.03,WeatherDisplay:10.37,2013-07-15 02:01:00,
2013-07-14 22:06:00,78.3,77.7,30.26,WSW,248,0.0,0.0,98,0.00,CLR,,0.03,WeatherDisplay:10.37,2013-07-15 02:06:00,
2013-07-14 22:11:00,78.3,77.7,30.26,WSW,248,0.0,0.0,98,0.00,CLR,,0.03,WeatherDisplay:10.37,2013-07-15 02:11:00,
2013-07-14 22:16:00,78.4,77.8,30.26,WSW,248,0.0,0.0,98,0.00,CLR,,0.03,WeatherDisplay:10.37,2013-07-15 02:16:00,
2013-07-14 22:21:00,78.4,77.8,30.28,WSW,248,0.0,0.0,98,0.00,FEW,,0.03,WeatherDisplay:10.37,2013-07-15 02:21:00,
2013-07-14 22:26:00,78.4,77.8,30.28,WSW,248,0.0,0.0,98,0.00,FEW,,0.03,WeatherDisplay:10.37,2013-07-15 02:26:00,
2013-07-14 22:31:00,78.3,77.7,30.28,WSW,248,0.0,0.0,98,0.00,FEW,,0.03,WeatherDisplay:10.37,2013-07-15 02:31:00,
2013-07-14 22:36:00,78.4,77.8,30.28,WSW,248,0.0,0.0,98,0.00,FEW,,0.03,WeatherDisplay:10.37,2013-07-15 02:36:00,
2013-07-14 22:41:00,78.4,77.8,30.28,WSW,248,0.0,0.0,98,0.00,FEW,,0.03,WeatherDisplay:10.37,2013-07-15 02:41:00,
2013-07-14 22:46:00,78.4,77.8,30.28,WSW,248,0.0,0.0,98,0.00,FEW,,0.03,WeatherDisplay:10.37,2013-07-15 02:46:00,
2013-07-14 22:51:00,78.3,77.7,30.11,WSW,247,0.0,-999.0,98,-99.99,,,0.03,Acu-Link.com,2013-07-15 02:51:00,
2013-07-14 22:56:00,78.3,77.7,30.28,WSW,248,0.0,0.0,98,0.00,FEW,,0.03,WeatherDisplay:10.37,2013-07-15 02:56:00,
2013-07-14 23:02:00,78.3,77.7,30.28,WSW,248,0.0,0.0,98,0.00,FEW,,0.03,WeatherDisplay:10.37,2013-07-15 03:02:00,
2013-07-14 23:07:00,78.1,77.5,30.11,WSW,247,1.7,-999.0,98,-99.99,,,0.03,Acu-Link.com,2013-07-15 03:07:00,
2013-07-14 23:12:00,78.1,77.5,30.28,WSW,248,0.0,0.0,98,0.00,FEW,,0.03,WeatherDisplay:10.37,2013-07-15 03:12:00,
2013-07-14 23:17:00,78.1,77.5,30.28,WSW,248,0.0,0.0,98,0.00,FEW,,0.03,WeatherDisplay:10.37,2013-07-15 03:17:00,
2013-07-14 23:22:00,78.1,77.5,30.28,WSW,248,0.0,0.0,98,0.00,CLR,,0.03,WeatherDisplay:10.37,2013-07-15 03:22:00,
2013-07-14 23:27:00,78.1,77.5,30.28,WSW,248,0.0,0.0,98,0.00,CLR,,0.03,WeatherDisplay:10.37,2013-07-15 03:27:00,
2013-07-14 23:32:00,78.1,77.5,30.28,WSW,248,0.0,0.0,98,0.00,CLR,,0.03,WeatherDisplay:10.37,2013-07-15 03:32:00,
2013-07-14 23:37:00,78.1,77.5,30.28,WSW,248,0.0,0.0,98,0.00,CLR,,0.03,WeatherDisplay:10.37,2013-07-15 03:37:00,
2013-07-14 23:42:00,78.1,77.5,30.28,WSW,248,0.0,0.0,98,0.00,CLR,,0.03,WeatherDisplay:10.37,2013-07-15 03:42:00,
2013-07-14 23:47:00,78.1,77.5,30.28,WSW,248,0.0,0.0,98,0.00,CLR,,0.03,WeatherDisplay:10.37,2013-07-15 03:47:00,
2013-07-14 23:52:00,78.1,77.5,30.28,WSW,248,0.0,0.0,98,0.00,CLR,,0.03,WeatherDisplay:10.37,2013-07-15 03:52:00,
2013-07-14 23:57:00,78.1,77.5,30.28,WSW,248,0.0,0.0,98,0.00,CLR,,0.03,WeatherDisplay:10.37,2013-07-15 03:57:00,